sensor_id;sensor_type;location;lat;lon;timestamp;P1;durP1;ratioP1;P2;durP2;ratioP2
7971;SDS011;4031;49.758;6.120;2022-12-20T00:00:02;32.40;;;19.17;;
7971;SDS011;4031;49.758;6.120;2022-12-20T00:02:29;32.13;;;16.97;;
7971;SDS011;4031;49.758;6.120;2022-12-20T00:04:55;26.67;;;16.07;;
7971;SDS011;4031;49.758;6.120;2022-12-20T00:07:20;21.50;;;14.33;;
7971;SDS011;4031;49.758;6.120;2022-12-20T00:09:46;18.60;;;11.70;;
7971;SDS011;4031;49.758;6.120;2022-12-20T00:12:12;18.80;;;10.47;;
7971;SDS011;4031;49.758;6.120;2022-12-20T00:14:37;14.40;;;11.00;;
7971;SDS011;4031;49.758;6.120;2022-12-20T00:17:03;14.37;;;9.30;;
7971;SDS011;4031;49.758;6.120;2022-12-20T00:19:29;27.13;;;12.60;;
7971;SDS011;4031;49.758;6.120;2022-12-20T00:21:55;19.60;;;12.77;;
7971;SDS011;4031;49.758;6.120;2022-12-20T00:24:20;19.00;;;12.23;;
7971;SDS011;4031;49.758;6.120;2022-12-20T00:26:47;12.37;;;10.30;;
7971;SDS011;4031;49.758;6.120;2022-12-20T00:29:12;14.47;;;10.40;;
7971;SDS011;4031;49.758;6.120;2022-12-20T00:31:38;9.43;;;7.30;;
7971;SDS011;4031;49.758;6.120;2022-12-20T00:34:04;18.90;;;8.53;;
7971;SDS011;4031;49.758;6.120;2022-12-20T00:36:30;16.60;;;8.07;;
7971;SDS011;4031;49.758;6.120;2022-12-20T00:38:57;10.33;;;7.00;;
7971;SDS011;4031;49.758;6.120;2022-12-20T00:41:28;13.73;;;8.30;;
7971;SDS011;4031;49.758;6.120;2022-12-20T00:43:56;11.43;;;7.80;;
7971;SDS011;4031;49.758;6.120;2022-12-20T00:46:22;14.17;;;8.30;;
7971;SDS011;4031;49.758;6.120;2022-12-20T00:48:49;11.63;;;8.50;;
7971;SDS011;4031;49.758;6.120;2022-12-20T00:51:17;16.77;;;10.47;;
7971;SDS011;4031;49.758;6.120;2022-12-20T00:53:46;14.97;;;11.53;;
7971;SDS011;4031;49.758;6.120;2022-12-20T00:56:12;19.47;;;13.63;;
7971;SDS011;4031;49.758;6.120;2022-12-20T00:58:39;31.40;;;15.67;;
7971;SDS011;4031;49.758;6.120;2022-12-20T01:01:13;26.07;;;16.77;;
7971;SDS011;4031;49.758;6.120;2022-12-20T01:03:51;20.73;;;14.27;;
7971;SDS011;4031;49.758;6.120;2022-12-20T01:06:18;21.60;;;13.23;;
7971;SDS011;4031;49.758;6.120;2022-12-20T01:08:44;14.97;;;11.67;;
7971;SDS011;4031;49.758;6.120;2022-12-20T01:11:12;15.17;;;12.03;;
7971;SDS011;4031;49.758;6.120;2022-12-20T01:13:42;16.17;;;11.90;;
7971;SDS011;4031;49.758;6.120;2022-12-20T01:16:12;19.73;;;12.73;;
7971;SDS011;4031;49.758;6.120;2022-12-20T01:19:16;19.27;;;12.43;;
7971;SDS011;4031;49.758;6.120;2022-12-20T01:21:43;19.80;;;13.43;;
7971;SDS011;4031;49.758;6.120;2022-12-20T01:24:09;15.10;;;10.30;;
7971;SDS011;4031;49.758;6.120;2022-12-20T01:26:40;12.40;;;7.40;;
7971;SDS011;4031;49.758;6.120;2022-12-20T01:29:06;14.60;;;9.30;;
7971;SDS011;4031;49.758;6.120;2022-12-20T01:31:32;19.40;;;13.30;;
7971;SDS011;4031;49.758;6.120;2022-12-20T01:33:58;18.80;;;10.97;;
7971;SDS011;4031;49.758;6.120;2022-12-20T01:36:26;15.40;;;10.90;;
7971;SDS011;4031;49.758;6.120;2022-12-20T01:39:08;27.07;;;14.90;;
7971;SDS011;4031;49.758;6.120;2022-12-20T01:41:39;10.87;;;7.70;;
7971;SDS011;4031;49.758;6.120;2022-12-20T01:46:40;6.90;;;6.20;;
7971;SDS011;4031;49.758;6.120;2022-12-20T01:49:08;6.70;;;5.27;;
7971;SDS011;4031;49.758;6.120;2022-12-20T01:57:25;4.80;;;4.27;;
7971;SDS011;4031;49.758;6.120;2022-12-20T01:59:56;4.37;;;3.97;;
7971;SDS011;4031;49.758;6.120;2022-12-20T02:02:23;5.40;;;4.03;;
7971;SDS011;4031;49.758;6.120;2022-12-20T02:04:49;4.23;;;3.70;;
7971;SDS011;4031;49.758;6.120;2022-12-20T02:07:16;8.27;;;4.93;;
7971;SDS011;4031;49.758;6.120;2022-12-20T02:09:47;3.60;;;3.30;;
7971;SDS011;4031;49.758;6.120;2022-12-20T02:12:14;6.10;;;4.07;;
7971;SDS011;4031;49.758;6.120;2022-12-20T02:20:35;7.53;;;3.40;;
7971;SDS011;4031;49.758;6.120;2022-12-20T02:31:54;4.00;;;3.30;;
7971;SDS011;4031;49.758;6.120;2022-12-20T02:34:27;5.37;;;3.23;;
7971;SDS011;4031;49.758;6.120;2022-12-20T02:36:56;3.93;;;2.73;;
7971;SDS011;4031;49.758;6.120;2022-12-20T02:39:22;4.03;;;3.63;;
7971;SDS011;4031;49.758;6.120;2022-12-20T02:41:56;4.10;;;3.67;;
7971;SDS011;4031;49.758;6.120;2022-12-20T02:44:26;3.43;;;3.13;;
7971;SDS011;4031;49.758;6.120;2022-12-20T02:47:14;3.50;;;3.20;;
7971;SDS011;4031;49.758;6.120;2022-12-20T02:49:48;3.83;;;3.43;;
7971;SDS011;4031;49.758;6.120;2022-12-20T02:52:15;4.57;;;3.70;;
7971;SDS011;4031;49.758;6.120;2022-12-20T02:54:45;3.00;;;2.73;;
7971;SDS011;4031;49.758;6.120;2022-12-20T02:57:32;3.73;;;3.37;;
7971;SDS011;4031;49.758;6.120;2022-12-20T03:00:10;4.50;;;3.87;;
7971;SDS011;4031;49.758;6.120;2022-12-20T03:02:43;2.63;;;2.43;;
7971;SDS011;4031;49.758;6.120;2022-12-20T03:05:28;4.67;;;3.63;;
7971;SDS011;4031;49.758;6.120;2022-12-20T03:07:57;2.23;;;2.00;;
7971;SDS011;4031;49.758;6.120;2022-12-20T03:10:23;4.17;;;3.77;;
7971;SDS011;4031;49.758;6.120;2022-12-20T03:12:49;3.37;;;3.07;;
7971;SDS011;4031;49.758;6.120;2022-12-20T03:15:14;5.57;;;2.73;;
7971;SDS011;4031;49.758;6.120;2022-12-20T03:17:40;3.90;;;3.47;;
7971;SDS011;4031;49.758;6.120;2022-12-20T03:20:06;4.93;;;3.47;;
7971;SDS011;4031;49.758;6.120;2022-12-20T03:22:35;4.20;;;2.80;;
7971;SDS011;4031;49.758;6.120;2022-12-20T03:25:01;3.17;;;2.90;;
7971;SDS011;4031;49.758;6.120;2022-12-20T03:27:27;6.33;;;3.37;;
7971;SDS011;4031;49.758;6.120;2022-12-20T03:29:53;3.17;;;2.53;;
7971;SDS011;4031;49.758;6.120;2022-12-20T03:32:20;3.23;;;2.93;;
7971;SDS011;4031;49.758;6.120;2022-12-20T03:34:46;3.70;;;2.70;;
7971;SDS011;4031;49.758;6.120;2022-12-20T03:37:12;4.50;;;3.13;;
7971;SDS011;4031;49.758;6.120;2022-12-20T03:39:37;5.60;;;4.03;;
7971;SDS011;4031;49.758;6.120;2022-12-20T03:42:03;5.10;;;3.70;;
7971;SDS011;4031;49.758;6.120;2022-12-20T03:44:29;3.53;;;3.23;;
7971;SDS011;4031;49.758;6.120;2022-12-20T03:46:55;3.73;;;3.00;;
7971;SDS011;4031;49.758;6.120;2022-12-20T03:49:20;4.33;;;2.30;;
7971;SDS011;4031;49.758;6.120;2022-12-20T03:51:46;3.90;;;3.40;;
7971;SDS011;4031;49.758;6.120;2022-12-20T03:54:12;3.77;;;2.63;;
7971;SDS011;4031;49.758;6.120;2022-12-20T03:56:37;3.83;;;3.43;;
7971;SDS011;4031;49.758;6.120;2022-12-20T03:59:03;3.33;;;2.90;;
7971;SDS011;4031;49.758;6.120;2022-12-20T04:01:29;8.27;;;3.17;;
7971;SDS011;4031;49.758;6.120;2022-12-20T04:03:55;2.83;;;2.63;;
7971;SDS011;4031;49.758;6.120;2022-12-20T04:06:21;4.63;;;3.10;;
7971;SDS011;4031;49.758;6.120;2022-12-20T04:08:48;4.07;;;3.50;;
7971;SDS011;4031;49.758;6.120;2022-12-20T04:11:14;4.93;;;3.13;;
7971;SDS011;4031;49.758;6.120;2022-12-20T04:13:40;4.23;;;3.27;;
7971;SDS011;4031;49.758;6.120;2022-12-20T04:16:11;3.87;;;2.47;;
7971;SDS011;4031;49.758;6.120;2022-12-20T04:18:40;3.63;;;2.50;;
7971;SDS011;4031;49.758;6.120;2022-12-20T04:21:06;7.97;;;2.97;;
7971;SDS011;4031;49.758;6.120;2022-12-20T04:23:36;3.20;;;2.00;;
7971;SDS011;4031;49.758;6.120;2022-12-20T04:26:04;4.90;;;2.73;;
7971;SDS011;4031;49.758;6.120;2022-12-20T04:28:31;3.67;;;3.27;;
7971;SDS011;4031;49.758;6.120;2022-12-20T04:30:58;2.70;;;2.13;;
7971;SDS011;4031;49.758;6.120;2022-12-20T04:33:25;6.70;;;3.10;;
7971;SDS011;4031;49.758;6.120;2022-12-20T04:35:52;4.57;;;3.63;;
7971;SDS011;4031;49.758;6.120;2022-12-20T04:38:19;4.80;;;3.10;;
7971;SDS011;4031;49.758;6.120;2022-12-20T04:40:49;3.53;;;3.10;;
7971;SDS011;4031;49.758;6.120;2022-12-20T04:43:17;3.00;;;2.63;;
7971;SDS011;4031;49.758;6.120;2022-12-20T04:45:45;3.63;;;3.00;;
7971;SDS011;4031;49.758;6.120;2022-12-20T04:48:12;3.97;;;2.83;;
7971;SDS011;4031;49.758;6.120;2022-12-20T04:50:38;3.60;;;2.73;;
7971;SDS011;4031;49.758;6.120;2022-12-20T04:53:04;3.20;;;2.90;;
7971;SDS011;4031;49.758;6.120;2022-12-20T04:55:48;3.23;;;2.90;;
7971;SDS011;4031;49.758;6.120;2022-12-20T04:58:14;3.27;;;2.97;;
7971;SDS011;4031;49.758;6.120;2022-12-20T05:00:40;3.00;;;2.53;;
7971;SDS011;4031;49.758;6.120;2022-12-20T05:03:06;2.93;;;2.60;;
7971;SDS011;4031;49.758;6.120;2022-12-20T05:05:32;3.00;;;2.67;;
7971;SDS011;4031;49.758;6.120;2022-12-20T05:07:58;5.13;;;2.97;;
7971;SDS011;4031;49.758;6.120;2022-12-20T05:10:24;3.37;;;3.07;;
7971;SDS011;4031;49.758;6.120;2022-12-20T05:12:50;2.97;;;2.67;;
7971;SDS011;4031;49.758;6.120;2022-12-20T05:15:15;3.00;;;2.70;;
7971;SDS011;4031;49.758;6.120;2022-12-20T05:17:41;2.70;;;2.50;;
7971;SDS011;4031;49.758;6.120;2022-12-20T05:20:07;4.40;;;2.97;;
7971;SDS011;4031;49.758;6.120;2022-12-20T05:22:34;3.73;;;2.50;;
7971;SDS011;4031;49.758;6.120;2022-12-20T05:25:18;2.30;;;2.10;;
7971;SDS011;4031;49.758;6.120;2022-12-20T05:28:02;4.80;;;2.67;;
7971;SDS011;4031;49.758;6.120;2022-12-20T05:30:28;2.47;;;2.27;;
7971;SDS011;4031;49.758;6.120;2022-12-20T05:32:54;5.90;;;2.70;;
7971;SDS011;4031;49.758;6.120;2022-12-20T05:35:19;3.40;;;2.27;;
7971;SDS011;4031;49.758;6.120;2022-12-20T05:37:45;3.50;;;2.60;;
7971;SDS011;4031;49.758;6.120;2022-12-20T05:40:11;2.60;;;2.40;;
7971;SDS011;4031;49.758;6.120;2022-12-20T05:42:37;2.90;;;2.23;;
7971;SDS011;4031;49.758;6.120;2022-12-20T05:45:03;3.40;;;2.83;;
7971;SDS011;4031;49.758;6.120;2022-12-20T05:47:30;5.70;;;2.90;;
7971;SDS011;4031;49.758;6.120;2022-12-20T05:49:58;2.23;;;2.13;;
7971;SDS011;4031;49.758;6.120;2022-12-20T05:52:24;3.20;;;2.83;;
7971;SDS011;4031;49.758;6.120;2022-12-20T05:54:50;3.70;;;3.10;;
7971;SDS011;4031;49.758;6.120;2022-12-20T05:57:16;4.40;;;2.73;;
7971;SDS011;4031;49.758;6.120;2022-12-20T05:59:42;3.00;;;2.70;;
7971;SDS011;4031;49.758;6.120;2022-12-20T06:02:08;6.40;;;3.07;;
7971;SDS011;4031;49.758;6.120;2022-12-20T06:04:36;3.10;;;2.57;;
7971;SDS011;4031;49.758;6.120;2022-12-20T06:07:02;3.13;;;2.83;;
7971;SDS011;4031;49.758;6.120;2022-12-20T06:09:29;2.50;;;2.30;;
7971;SDS011;4031;49.758;6.120;2022-12-20T06:11:56;3.07;;;2.27;;
7971;SDS011;4031;49.758;6.120;2022-12-20T06:14:23;2.30;;;2.10;;
7971;SDS011;4031;49.758;6.120;2022-12-20T06:16:48;2.70;;;2.07;;
7971;SDS011;4031;49.758;6.120;2022-12-20T06:19:14;2.43;;;2.23;;
7971;SDS011;4031;49.758;6.120;2022-12-20T06:21:40;3.70;;;2.67;;
7971;SDS011;4031;49.758;6.120;2022-12-20T06:24:06;3.10;;;2.70;;
7971;SDS011;4031;49.758;6.120;2022-12-20T06:26:32;2.60;;;2.40;;
7971;SDS011;4031;49.758;6.120;2022-12-20T06:29:02;4.13;;;1.83;;
7971;SDS011;4031;49.758;6.120;2022-12-20T06:31:31;2.73;;;2.53;;
7971;SDS011;4031;49.758;6.120;2022-12-20T06:33:57;2.73;;;2.53;;
7971;SDS011;4031;49.758;6.120;2022-12-20T06:36:23;1.73;;;1.63;;
7971;SDS011;4031;49.758;6.120;2022-12-20T06:38:49;2.13;;;1.83;;
7971;SDS011;4031;49.758;6.120;2022-12-20T06:41:15;2.40;;;2.20;;
7971;SDS011;4031;49.758;6.120;2022-12-20T06:43:41;3.50;;;2.70;;
7971;SDS011;4031;49.758;6.120;2022-12-20T06:46:07;2.50;;;2.30;;
7971;SDS011;4031;49.758;6.120;2022-12-20T06:48:32;3.80;;;2.40;;
7971;SDS011;4031;49.758;6.120;2022-12-20T06:50:58;3.33;;;2.10;;
7971;SDS011;4031;49.758;6.120;2022-12-20T06:53:24;2.10;;;1.83;;
7971;SDS011;4031;49.758;6.120;2022-12-20T06:55:50;4.10;;;2.40;;
7971;SDS011;4031;49.758;6.120;2022-12-20T06:58:18;4.40;;;2.60;;
7971;SDS011;4031;49.758;6.120;2022-12-20T07:00:45;2.50;;;2.00;;
7971;SDS011;4031;49.758;6.120;2022-12-20T07:03:11;3.00;;;2.73;;
7971;SDS011;4031;49.758;6.120;2022-12-20T07:05:37;4.80;;;2.37;;
7971;SDS011;4031;49.758;6.120;2022-12-20T07:08:04;2.40;;;2.20;;
7971;SDS011;4031;49.758;6.120;2022-12-20T07:10:32;2.37;;;1.70;;
7971;SDS011;4031;49.758;6.120;2022-12-20T07:12:59;6.50;;;2.10;;
7971;SDS011;4031;49.758;6.120;2022-12-20T07:15:25;2.07;;;1.90;;
7971;SDS011;4031;49.758;6.120;2022-12-20T07:17:50;2.97;;;2.67;;
7971;SDS011;4031;49.758;6.120;2022-12-20T07:20:16;4.13;;;2.10;;
7971;SDS011;4031;49.758;6.120;2022-12-20T07:22:42;0.93;;;0.93;;
7971;SDS011;4031;49.758;6.120;2022-12-20T07:25:08;3.27;;;2.23;;
7971;SDS011;4031;49.758;6.120;2022-12-20T07:27:35;6.63;;;2.60;;
7971;SDS011;4031;49.758;6.120;2022-12-20T07:30:01;3.83;;;2.87;;
7971;SDS011;4031;49.758;6.120;2022-12-20T07:32:29;2.43;;;2.20;;
7971;SDS011;4031;49.758;6.120;2022-12-20T07:34:54;3.00;;;2.53;;
7971;SDS011;4031;49.758;6.120;2022-12-20T07:37:20;4.73;;;3.13;;
7971;SDS011;4031;49.758;6.120;2022-12-20T07:39:46;3.07;;;2.13;;
7971;SDS011;4031;49.758;6.120;2022-12-20T07:42:11;2.77;;;2.50;;
7971;SDS011;4031;49.758;6.120;2022-12-20T07:44:37;2.70;;;2.13;;
7971;SDS011;4031;49.758;6.120;2022-12-20T07:47:03;3.10;;;2.47;;
7971;SDS011;4031;49.758;6.120;2022-12-20T07:49:28;2.63;;;2.23;;
7971;SDS011;4031;49.758;6.120;2022-12-20T07:51:55;2.30;;;2.10;;
7971;SDS011;4031;49.758;6.120;2022-12-20T07:54:24;3.60;;;2.67;;
7971;SDS011;4031;49.758;6.120;2022-12-20T07:57:02;3.00;;;2.20;;
7971;SDS011;4031;49.758;6.120;2022-12-20T07:59:39;3.80;;;3.37;;
7971;SDS011;4031;49.758;6.120;2022-12-20T08:02:10;1.67;;;1.40;;
7971;SDS011;4031;49.758;6.120;2022-12-20T08:04:43;3.97;;;2.43;;
7971;SDS011;4031;49.758;6.120;2022-12-20T08:07:09;2.53;;;2.33;;
7971;SDS011;4031;49.758;6.120;2022-12-20T08:09:36;7.00;;;2.80;;
7971;SDS011;4031;49.758;6.120;2022-12-20T08:12:06;3.40;;;2.40;;
7971;SDS011;4031;49.758;6.120;2022-12-20T08:14:35;2.60;;;2.40;;
7971;SDS011;4031;49.758;6.120;2022-12-20T08:17:01;2.63;;;1.97;;
7971;SDS011;4031;49.758;6.120;2022-12-20T08:19:27;2.50;;;2.30;;
7971;SDS011;4031;49.758;6.120;2022-12-20T08:21:53;2.43;;;2.23;;
7971;SDS011;4031;49.758;6.120;2022-12-20T08:24:19;3.43;;;2.47;;
7971;SDS011;4031;49.758;6.120;2022-12-20T08:26:45;4.40;;;2.30;;
7971;SDS011;4031;49.758;6.120;2022-12-20T08:29:10;2.50;;;1.90;;
7971;SDS011;4031;49.758;6.120;2022-12-20T08:31:37;5.20;;;2.53;;
7971;SDS011;4031;49.758;6.120;2022-12-20T08:34:04;4.63;;;2.40;;
7971;SDS011;4031;49.758;6.120;2022-12-20T08:36:30;2.70;;;2.50;;
7971;SDS011;4031;49.758;6.120;2022-12-20T08:38:56;2.80;;;2.50;;
7971;SDS011;4031;49.758;6.120;2022-12-20T08:41:22;3.63;;;3.30;;
7971;SDS011;4031;49.758;6.120;2022-12-20T08:43:48;2.73;;;2.43;;
7971;SDS011;4031;49.758;6.120;2022-12-20T08:46:13;3.00;;;2.63;;
7971;SDS011;4031;49.758;6.120;2022-12-20T08:48:39;3.43;;;2.23;;
7971;SDS011;4031;49.758;6.120;2022-12-20T08:51:06;4.80;;;2.43;;
7971;SDS011;4031;49.758;6.120;2022-12-20T08:53:35;3.57;;;2.37;;
7971;SDS011;4031;49.758;6.120;2022-12-20T08:56:06;2.57;;;2.37;;
7971;SDS011;4031;49.758;6.120;2022-12-20T08:58:35;3.33;;;2.63;;
7971;SDS011;4031;49.758;6.120;2022-12-20T09:01:03;4.60;;;2.80;;
7971;SDS011;4031;49.758;6.120;2022-12-20T09:03:35;2.07;;;1.97;;
7971;SDS011;4031;49.758;6.120;2022-12-20T09:06:06;3.87;;;2.63;;
7971;SDS011;4031;49.758;6.120;2022-12-20T09:08:35;3.23;;;2.80;;
7971;SDS011;4031;49.758;6.120;2022-12-20T09:11:03;2.77;;;2.17;;
7971;SDS011;4031;49.758;6.120;2022-12-20T09:13:37;4.13;;;2.90;;
7971;SDS011;4031;49.758;6.120;2022-12-20T09:16:05;5.17;;;2.67;;
7971;SDS011;4031;49.758;6.120;2022-12-20T09:18:32;4.93;;;2.67;;
7971;SDS011;4031;49.758;6.120;2022-12-20T09:20:58;3.90;;;2.60;;
7971;SDS011;4031;49.758;6.120;2022-12-20T09:23:29;4.70;;;2.80;;
7971;SDS011;4031;49.758;6.120;2022-12-20T09:26:00;2.37;;;2.17;;
7971;SDS011;4031;49.758;6.120;2022-12-20T09:28:31;3.03;;;2.73;;
7971;SDS011;4031;49.758;6.120;2022-12-20T09:30:58;5.20;;;2.90;;
7971;SDS011;4031;49.758;6.120;2022-12-20T09:33:29;3.00;;;2.10;;
7971;SDS011;4031;49.758;6.120;2022-12-20T09:35:57;4.83;;;2.73;;
7971;SDS011;4031;49.758;6.120;2022-12-20T09:38:24;2.57;;;1.97;;
7971;SDS011;4031;49.758;6.120;2022-12-20T09:40:55;2.10;;;2.00;;
7971;SDS011;4031;49.758;6.120;2022-12-20T09:43:27;2.60;;;2.33;;
7971;SDS011;4031;49.758;6.120;2022-12-20T09:45:54;2.13;;;1.87;;
7971;SDS011;4031;49.758;6.120;2022-12-20T09:48:24;2.77;;;2.50;;
7971;SDS011;4031;49.758;6.120;2022-12-20T09:56:43;2.03;;;1.93;;
7971;SDS011;4031;49.758;6.120;2022-12-20T09:59:18;4.10;;;2.23;;
7971;SDS011;4031;49.758;6.120;2022-12-20T10:01:45;2.67;;;1.97;;
7971;SDS011;4031;49.758;6.120;2022-12-20T10:04:17;3.57;;;2.47;;
7971;SDS011;4031;49.758;6.120;2022-12-20T10:15:52;1.73;;;1.63;;
7971;SDS011;4031;49.758;6.120;2022-12-20T10:24:11;3.50;;;2.00;;
7971;SDS011;4031;49.758;6.120;2022-12-20T10:29:53;2.43;;;2.20;;
7971;SDS011;4031;49.758;6.120;2022-12-20T10:32:19;3.90;;;2.47;;
7971;SDS011;4031;49.758;6.120;2022-12-20T10:34:50;7.50;;;3.10;;
7971;SDS011;4031;49.758;6.120;2022-12-20T10:37:22;2.00;;;1.70;;
7971;SDS011;4031;49.758;6.120;2022-12-20T10:39:48;5.90;;;2.47;;
7971;SDS011;4031;49.758;6.120;2022-12-20T10:42:23;2.40;;;2.17;;
7971;SDS011;4031;49.758;6.120;2022-12-20T10:44:49;1.67;;;1.57;;
7971;SDS011;4031;49.758;6.120;2022-12-20T10:50:16;1.77;;;1.67;;
7971;SDS011;4031;49.758;6.120;2022-12-20T10:55:39;2.10;;;1.90;;
7971;SDS011;4031;49.758;6.120;2022-12-20T11:00:42;3.50;;;1.93;;
7971;SDS011;4031;49.758;6.120;2022-12-20T11:05:58;2.20;;;1.70;;
7971;SDS011;4031;49.758;6.120;2022-12-20T11:08:28;3.30;;;2.30;;
7971;SDS011;4031;49.758;6.120;2022-12-20T11:11:09;2.07;;;1.90;;
7971;SDS011;4031;49.758;6.120;2022-12-20T11:13:40;2.23;;;2.03;;
7971;SDS011;4031;49.758;6.120;2022-12-20T11:22:20;5.30;;;2.20;;
7971;SDS011;4031;49.758;6.120;2022-12-20T11:25:25;2.17;;;1.83;;
7971;SDS011;4031;49.758;6.120;2022-12-20T11:33:49;1.63;;;1.53;;
7971;SDS011;4031;49.758;6.120;2022-12-20T11:36:40;3.70;;;2.00;;
7971;SDS011;4031;49.758;6.120;2022-12-20T11:39:43;2.03;;;1.77;;
7971;SDS011;4031;49.758;6.120;2022-12-20T11:54:48;3.60;;;1.93;;
7971;SDS011;4031;49.758;6.120;2022-12-20T11:57:27;1.50;;;1.40;;
7971;SDS011;4031;49.758;6.120;2022-12-20T12:00:02;2.07;;;1.60;;
7971;SDS011;4031;49.758;6.120;2022-12-20T12:02:32;5.00;;;2.33;;
7971;SDS011;4031;49.758;6.120;2022-12-20T12:08:18;2.63;;;1.83;;
7971;SDS011;4031;49.758;6.120;2022-12-20T12:10:59;1.83;;;1.73;;
7971;SDS011;4031;49.758;6.120;2022-12-20T12:13:35;2.10;;;1.93;;
7971;SDS011;4031;49.758;6.120;2022-12-20T12:16:08;4.00;;;2.00;;
7971;SDS011;4031;49.758;6.120;2022-12-20T12:18:41;3.73;;;1.80;;
7971;SDS011;4031;49.758;6.120;2022-12-20T12:21:09;1.33;;;1.20;;
7971;SDS011;4031;49.758;6.120;2022-12-20T12:26:32;1.50;;;1.30;;
7971;SDS011;4031;49.758;6.120;2022-12-20T12:34:13;1.57;;;1.47;;
7971;SDS011;4031;49.758;6.120;2022-12-20T12:39:42;2.93;;;2.40;;
7971;SDS011;4031;49.758;6.120;2022-12-20T12:42:23;2.47;;;1.60;;
7971;SDS011;4031;49.758;6.120;2022-12-20T12:45:22;2.23;;;2.03;;
7971;SDS011;4031;49.758;6.120;2022-12-20T12:50:52;1.60;;;1.43;;
7971;SDS011;4031;49.758;6.120;2022-12-20T12:53:41;3.03;;;1.80;;
7971;SDS011;4031;49.758;6.120;2022-12-20T13:01:47;2.13;;;1.93;;
7971;SDS011;4031;49.758;6.120;2022-12-20T13:04:27;2.37;;;1.83;;
7971;SDS011;4031;49.758;6.120;2022-12-20T13:10:54;1.97;;;1.70;;
7971;SDS011;4031;49.758;6.120;2022-12-20T13:17:55;3.27;;;1.87;;
7971;SDS011;4031;49.758;6.120;2022-12-20T13:20:24;5.17;;;2.00;;
7971;SDS011;4031;49.758;6.120;2022-12-20T13:23:11;5.47;;;2.27;;
7971;SDS011;4031;49.758;6.120;2022-12-20T13:46:41;2.73;;;2.30;;
7971;SDS011;4031;49.758;6.120;2022-12-20T13:49:39;3.40;;;2.03;;
7971;SDS011;4031;49.758;6.120;2022-12-20T13:54:38;2.57;;;1.80;;
7971;SDS011;4031;49.758;6.120;2022-12-20T13:57:07;3.10;;;2.40;;
7971;SDS011;4031;49.758;6.120;2022-12-20T13:59:42;5.50;;;2.30;;
7971;SDS011;4031;49.758;6.120;2022-12-20T14:02:21;4.83;;;2.10;;
7971;SDS011;4031;49.758;6.120;2022-12-20T14:04:58;3.57;;;1.97;;
7971;SDS011;4031;49.758;6.120;2022-12-20T14:07:28;2.73;;;2.30;;
7971;SDS011;4031;49.758;6.120;2022-12-20T14:09:56;3.43;;;2.30;;
7971;SDS011;4031;49.758;6.120;2022-12-20T14:12:26;3.30;;;2.10;;
7971;SDS011;4031;49.758;6.120;2022-12-20T14:14:53;5.47;;;2.23;;
7971;SDS011;4031;49.758;6.120;2022-12-20T14:17:32;2.43;;;2.10;;
7971;SDS011;4031;49.758;6.120;2022-12-20T14:20:14;4.07;;;2.43;;
7971;SDS011;4031;49.758;6.120;2022-12-20T14:23:03;4.37;;;1.97;;
7971;SDS011;4031;49.758;6.120;2022-12-20T14:25:40;2.23;;;2.10;;
7971;SDS011;4031;49.758;6.120;2022-12-20T14:30:45;3.80;;;2.10;;
7971;SDS011;4031;49.758;6.120;2022-12-20T14:33:24;2.10;;;1.73;;
7971;SDS011;4031;49.758;6.120;2022-12-20T14:35:55;3.53;;;1.97;;
7971;SDS011;4031;49.758;6.120;2022-12-20T14:38:30;3.87;;;2.13;;
7971;SDS011;4031;49.758;6.120;2022-12-20T14:40:56;2.70;;;1.90;;
7971;SDS011;4031;49.758;6.120;2022-12-20T14:43:26;4.00;;;2.27;;
7971;SDS011;4031;49.758;6.120;2022-12-20T14:46:07;3.30;;;2.63;;
7971;SDS011;4031;49.758;6.120;2022-12-20T14:48:44;4.10;;;2.50;;
7971;SDS011;4031;49.758;6.120;2022-12-20T14:51:11;3.50;;;1.90;;
7971;SDS011;4031;49.758;6.120;2022-12-20T14:53:43;3.10;;;2.67;;
7971;SDS011;4031;49.758;6.120;2022-12-20T14:56:17;5.00;;;2.33;;
7971;SDS011;4031;49.758;6.120;2022-12-20T14:58:45;3.60;;;2.90;;
7971;SDS011;4031;49.758;6.120;2022-12-20T15:01:36;2.80;;;2.33;;
7971;SDS011;4031;49.758;6.120;2022-12-20T15:04:17;5.60;;;2.90;;
7971;SDS011;4031;49.758;6.120;2022-12-20T15:06:56;3.53;;;2.40;;
7971;SDS011;4031;49.758;6.120;2022-12-20T15:09:23;3.20;;;2.10;;
7971;SDS011;4031;49.758;6.120;2022-12-20T15:11:49;2.67;;;2.47;;
7971;SDS011;4031;49.758;6.120;2022-12-20T15:16:59;4.77;;;3.43;;
7971;SDS011;4031;49.758;6.120;2022-12-20T15:19:25;2.97;;;2.67;;
7971;SDS011;4031;49.758;6.120;2022-12-20T15:21:51;3.90;;;2.90;;
7971;SDS011;4031;49.758;6.120;2022-12-20T15:24:18;4.30;;;2.77;;
7971;SDS011;4031;49.758;6.120;2022-12-20T15:26:48;3.37;;;2.30;;
7971;SDS011;4031;49.758;6.120;2022-12-20T15:29:18;4.60;;;3.27;;
7971;SDS011;4031;49.758;6.120;2022-12-20T15:31:47;3.03;;;2.80;;
7971;SDS011;4031;49.758;6.120;2022-12-20T15:34:34;4.47;;;3.00;;
7971;SDS011;4031;49.758;6.120;2022-12-20T15:37:02;2.77;;;2.53;;
7971;SDS011;4031;49.758;6.120;2022-12-20T15:39:29;4.03;;;2.87;;
7971;SDS011;4031;49.758;6.120;2022-12-20T15:41:56;7.00;;;2.53;;
7971;SDS011;4031;49.758;6.120;2022-12-20T15:44:25;4.50;;;2.43;;
7971;SDS011;4031;49.758;6.120;2022-12-20T15:46:53;2.80;;;2.53;;
7971;SDS011;4031;49.758;6.120;2022-12-20T15:49:23;5.03;;;2.70;;
7971;SDS011;4031;49.758;6.120;2022-12-20T15:51:53;4.20;;;2.60;;
7971;SDS011;4031;49.758;6.120;2022-12-20T15:56:55;4.43;;;2.87;;
7971;SDS011;4031;49.758;6.120;2022-12-20T15:59:23;3.33;;;2.37;;
7971;SDS011;4031;49.758;6.120;2022-12-20T16:01:49;4.20;;;3.17;;
7971;SDS011;4031;49.758;6.120;2022-12-20T16:04:16;4.10;;;2.90;;
7971;SDS011;4031;49.758;6.120;2022-12-20T16:06:44;2.40;;;2.20;;
7971;SDS011;4031;49.758;6.120;2022-12-20T16:09:12;6.60;;;3.77;;
7971;SDS011;4031;49.758;6.120;2022-12-20T16:11:40;4.27;;;2.90;;
7971;SDS011;4031;49.758;6.120;2022-12-20T16:14:14;2.83;;;2.50;;
7971;SDS011;4031;49.758;6.120;2022-12-20T16:16:43;4.03;;;2.10;;
7971;SDS011;4031;49.758;6.120;2022-12-20T16:19:09;4.60;;;3.00;;
7971;SDS011;4031;49.758;6.120;2022-12-20T16:21:40;4.13;;;2.50;;
7971;SDS011;4031;49.758;6.120;2022-12-20T16:24:12;3.23;;;2.80;;
7971;SDS011;4031;49.758;6.120;2022-12-20T16:26:40;4.30;;;2.37;;
7971;SDS011;4031;49.758;6.120;2022-12-20T16:29:06;6.30;;;2.67;;
7971;SDS011;4031;49.758;6.120;2022-12-20T16:31:36;2.80;;;2.60;;
7971;SDS011;4031;49.758;6.120;2022-12-20T16:34:04;4.40;;;2.87;;
7971;SDS011;4031;49.758;6.120;2022-12-20T16:36:36;2.87;;;2.67;;
7971;SDS011;4031;49.758;6.120;2022-12-20T16:39:02;3.80;;;3.07;;
7971;SDS011;4031;49.758;6.120;2022-12-20T16:41:29;1.93;;;1.83;;
7971;SDS011;4031;49.758;6.120;2022-12-20T16:43:57;4.47;;;3.33;;
7971;SDS011;4031;49.758;6.120;2022-12-20T16:46:26;3.00;;;2.70;;
7971;SDS011;4031;49.758;6.120;2022-12-20T16:48:54;3.67;;;2.90;;
7971;SDS011;4031;49.758;6.120;2022-12-20T16:51:23;5.03;;;2.50;;
7971;SDS011;4031;49.758;6.120;2022-12-20T16:54:00;4.83;;;3.00;;
7971;SDS011;4031;49.758;6.120;2022-12-20T16:56:32;5.20;;;2.90;;
7971;SDS011;4031;49.758;6.120;2022-12-20T16:58:58;5.03;;;2.80;;
7971;SDS011;4031;49.758;6.120;2022-12-20T17:01:30;3.60;;;3.03;;
7971;SDS011;4031;49.758;6.120;2022-12-20T17:03:59;5.60;;;2.90;;
7971;SDS011;4031;49.758;6.120;2022-12-20T17:06:26;4.40;;;2.80;;
7971;SDS011;4031;49.758;6.120;2022-12-20T17:08:52;2.27;;;2.07;;
7971;SDS011;4031;49.758;6.120;2022-12-20T17:11:20;3.70;;;3.07;;
7971;SDS011;4031;49.758;6.120;2022-12-20T17:13:48;5.80;;;3.90;;
7971;SDS011;4031;49.758;6.120;2022-12-20T17:16:17;3.80;;;3.30;;
7971;SDS011;4031;49.758;6.120;2022-12-20T17:18:45;4.00;;;2.70;;
7971;SDS011;4031;49.758;6.120;2022-12-20T17:24:03;4.03;;;3.60;;
7971;SDS011;4031;49.758;6.120;2022-12-20T17:26:31;5.93;;;2.97;;
7971;SDS011;4031;49.758;6.120;2022-12-20T17:28:57;4.93;;;3.37;;
7971;SDS011;4031;49.758;6.120;2022-12-20T17:31:40;4.03;;;2.37;;
7971;SDS011;4031;49.758;6.120;2022-12-20T17:34:18;6.27;;;3.30;;
7971;SDS011;4031;49.758;6.120;2022-12-20T17:36:52;4.47;;;2.80;;
7971;SDS011;4031;49.758;6.120;2022-12-20T17:39:20;4.33;;;3.43;;
7971;SDS011;4031;49.758;6.120;2022-12-20T17:41:47;5.50;;;3.40;;
7971;SDS011;4031;49.758;6.120;2022-12-20T17:44:16;4.73;;;4.10;;
7971;SDS011;4031;49.758;6.120;2022-12-20T17:46:45;5.80;;;3.93;;
7971;SDS011;4031;49.758;6.120;2022-12-20T17:49:11;3.13;;;2.80;;
7971;SDS011;4031;49.758;6.120;2022-12-20T17:51:38;2.73;;;2.53;;
7971;SDS011;4031;49.758;6.120;2022-12-20T17:54:03;2.67;;;2.47;;